sensor_id;sensor_type;location;lat;lon;timestamp;temperature;humidity
22968;DHT22;11650;48.106;-1.696;2022-10-16T00:01:09;14.00;99.90
22968;DHT22;11650;48.106;-1.696;2022-10-16T00:03:37;14.00;99.90
22968;DHT22;11650;48.106;-1.696;2022-10-16T00:06:03;14.00;99.90
22968;DHT22;11650;48.106;-1.696;2022-10-16T00:08:29;14.00;99.90
22968;DHT22;11650;48.106;-1.696;2022-10-16T00:11:03;14.00;99.90
22968;DHT22;11650;48.106;-1.696;2022-10-16T00:13:29;14.00;99.90
22968;DHT22;11650;48.106;-1.696;2022-10-16T00:15:57;14.00;99.90
22968;DHT22;11650;48.106;-1.696;2022-10-16T00:18:23;14.00;99.90
22968;DHT22;11650;48.106;-1.696;2022-10-16T00:20:50;14.00;99.90
22968;DHT22;11650;48.106;-1.696;2022-10-16T00:23:15;14.00;99.90
22968;DHT22;11650;48.106;-1.696;2022-10-16T00:25:41;14.00;99.90
22968;DHT22;11650;48.106;-1.696;2022-10-16T00:28:07;14.00;99.90
22968;DHT22;11650;48.106;-1.696;2022-10-16T00:30:32;14.00;99.90
22968;DHT22;11650;48.106;-1.696;2022-10-16T00:32:58;13.90;99.90
22968;DHT22;11650;48.106;-1.696;2022-10-16T00:35:24;14.00;99.90
22968;DHT22;11650;48.106;-1.696;2022-10-16T00:37:49;14.00;99.90
22968;DHT22;11650;48.106;-1.696;2022-10-16T00:40:15;14.00;99.90
22968;DHT22;11650;48.106;-1.696;2022-10-16T00:42:41;14.10;99.90
22968;DHT22;11650;48.106;-1.696;2022-10-16T00:45:08;14.00;99.90
22968;DHT22;11650;48.106;-1.696;2022-10-16T00:47:39;14.00;99.90
22968;DHT22;11650;48.106;-1.696;2022-10-16T00:50:13;14.10;99.90
22968;DHT22;11650;48.106;-1.696;2022-10-16T00:52:43;14.10;99.90
22968;DHT22;11650;48.106;-1.696;2022-10-16T00:55:09;14.10;99.90
22968;DHT22;11650;48.106;-1.696;2022-10-16T00:57:36;14.10;99.90
22968;DHT22;11650;48.106;-1.696;2022-10-16T01:00:05;14.10;99.90
22968;DHT22;11650;48.106;-1.696;2022-10-16T01:02:31;14.10;99.90
22968;DHT22;11650;48.106;-1.696;2022-10-16T01:04:57;14.10;99.90
22968;DHT22;11650;48.106;-1.696;2022-10-16T01:10:38;14.10;99.90
22968;DHT22;11650;48.106;-1.696;2022-10-16T01:13:54;14.10;99.90
22968;DHT22;11650;48.106;-1.696;2022-10-16T01:16:32;14.10;99.90
22968;DHT22;11650;48.106;-1.696;2022-10-16T01:19:12;14.10;99.90
22968;DHT22;11650;48.106;-1.696;2022-10-16T01:21:42;14.10;99.90
22968;DHT22;11650;48.106;-1.696;2022-10-16T01:24:17;14.10;99.90
22968;DHT22;11650;48.106;-1.696;2022-10-16T01:35:03;13.90;99.90
22968;DHT22;11650;48.106;-1.696;2022-10-16T01:37:44;13.90;99.90
22968;DHT22;11650;48.106;-1.696;2022-10-16T01:40:15;14.00;99.90
22968;DHT22;11650;48.106;-1.696;2022-10-16T01:42:48;13.90;99.90
22968;DHT22;11650;48.106;-1.696;2022-10-16T01:45:15;13.90;99.90
22968;DHT22;11650;48.106;-1.696;2022-10-16T01:47:44;13.90;99.90
22968;DHT22;11650;48.106;-1.696;2022-10-16T01:50:12;13.90;99.90
22968;DHT22;11650;48.106;-1.696;2022-10-16T01:52:41;13.90;99.90
22968;DHT22;11650;48.106;-1.696;2022-10-16T01:55:10;13.80;99.90
22968;DHT22;11650;48.106;-1.696;2022-10-16T01:57:41;13.90;99.90
22968;DHT22;11650;48.106;-1.696;2022-10-16T02:00:11;13.90;99.90
22968;DHT22;11650;48.106;-1.696;2022-10-16T02:02:40;13.80;99.90
22968;DHT22;11650;48.106;-1.696;2022-10-16T02:07:38;13.80;99.90
22968;DHT22;11650;48.106;-1.696;2022-10-16T02:10:06;13.80;99.90
22968;DHT22;11650;48.106;-1.696;2022-10-16T02:12:34;13.70;99.90
22968;DHT22;11650;48.106;-1.696;2022-10-16T02:15:02;13.70;99.90
22968;DHT22;11650;48.106;-1.696;2022-10-16T02:17:28;13.70;99.90
22968;DHT22;11650;48.106;-1.696;2022-10-16T02:19:55;13.70;99.90
22968;DHT22;11650;48.106;-1.696;2022-10-16T02:22:32;13.60;99.90
22968;DHT22;11650;48.106;-1.696;2022-10-16T02:25:06;13.70;99.90
22968;DHT22;11650;48.106;-1.696;2022-10-16T02:30:34;13.60;99.90
22968;DHT22;11650;48.106;-1.696;2022-10-16T02:33:03;13.60;99.90
22968;DHT22;11650;48.106;-1.696;2022-10-16T02:35:31;13.60;99.90
22968;DHT22;11650;48.106;-1.696;2022-10-16T02:37:57;13.60;99.90
22968;DHT22;11650;48.106;-1.696;2022-10-16T02:40:24;13.50;99.90
22968;DHT22;11650;48.106;-1.696;2022-10-16T02:42:51;13.50;99.90
22968;DHT22;11650;48.106;-1.696;2022-10-16T02:45:18;13.50;99.90
22968;DHT22;11650;48.106;-1.696;2022-10-16T02:47:43;13.50;99.90
22968;DHT22;11650;48.106;-1.696;2022-10-16T02:50:09;13.50;99.90
22968;DHT22;11650;48.106;-1.696;2022-10-16T02:52:35;13.40;99.90
22968;DHT22;11650;48.106;-1.696;2022-10-16T02:55:01;13.40;99.90
22968;DHT22;11650;48.106;-1.696;2022-10-16T02:57:26;13.40;99.90
22968;DHT22;11650;48.106;-1.696;2022-10-16T02:59:52;13.40;99.90
22968;DHT22;11650;48.106;-1.696;2022-10-16T03:02:18;13.40;99.90
22968;DHT22;11650;48.106;-1.696;2022-10-16T03:04:44;13.40;99.90
22968;DHT22;11650;48.106;-1.696;2022-10-16T03:07:09;13.40;99.90
22968;DHT22;11650;48.106;-1.696;2022-10-16T03:09:35;13.30;99.90
22968;DHT22;11650;48.106;-1.696;2022-10-16T03:12:01;13.40;99.90
22968;DHT22;11650;48.106;-1.696;2022-10-16T03:14:26;13.40;99.90
22968;DHT22;11650;48.106;-1.696;2022-10-16T03:16:52;13.40;99.90
22968;DHT22;11650;48.106;-1.696;2022-10-16T03:19:18;13.40;99.90
22968;DHT22;11650;48.106;-1.696;2022-10-16T03:21:44;13.50;99.90
22968;DHT22;11650;48.106;-1.696;2022-10-16T03:24:10;13.50;99.90
22968;DHT22;11650;48.106;-1.696;2022-10-16T03:26:36;13.60;99.90
22968;DHT22;11650;48.106;-1.696;2022-10-16T03:29:02;13.60;99.90
22968;DHT22;11650;48.106;-1.696;2022-10-16T03:31:29;13.60;99.90
22968;DHT22;11650;48.106;-1.696;2022-10-16T03:33:55;13.60;99.90
22968;DHT22;11650;48.106;-1.696;2022-10-16T03:36:20;13.60;99.90
22968;DHT22;11650;48.106;-1.696;2022-10-16T03:38:46;13.60;99.90
22968;DHT22;11650;48.106;-1.696;2022-10-16T03:41:12;13.70;99.90
22968;DHT22;11650;48.106;-1.696;2022-10-16T03:43:38;13.70;99.90
22968;DHT22;11650;48.106;-1.696;2022-10-16T03:46:03;13.70;99.90
22968;DHT22;11650;48.106;-1.696;2022-10-16T03:48:30;13.70;99.90
22968;DHT22;11650;48.106;-1.696;2022-10-16T03:50:55;13.70;99.90
22968;DHT22;11650;48.106;-1.696;2022-10-16T03:53:21;13.70;99.90
22968;DHT22;11650;48.106;-1.696;2022-10-16T03:55:47;13.80;99.90
22968;DHT22;11650;48.106;-1.696;2022-10-16T03:58:12;13.80;99.90
22968;DHT22;11650;48.106;-1.696;2022-10-16T04:00:42;13.80;99.90
22968;DHT22;11650;48.106;-1.696;2022-10-16T04:03:07;13.90;99.90
22968;DHT22;11650;48.106;-1.696;2022-10-16T04:05:33;13.90;99.90
22968;DHT22;11650;48.106;-1.696;2022-10-16T04:07:59;13.90;99.90
22968;DHT22;11650;48.106;-1.696;2022-10-16T04:10:24;13.90;99.90
22968;DHT22;11650;48.106;-1.696;2022-10-16T04:12:50;13.90;99.90
22968;DHT22;11650;48.106;-1.696;2022-10-16T04:15:16;14.00;99.90
22968;DHT22;11650;48.106;-1.696;2022-10-16T04:17:41;14.00;99.90
22968;DHT22;11650;48.106;-1.696;2022-10-16T04:20:07;14.00;99.90
22968;DHT22;11650;48.106;-1.696;2022-10-16T04:22:33;14.00;99.90
22968;DHT22;11650;48.106;-1.696;2022-10-16T04:24:59;14.00;99.90
22968;DHT22;11650;48.106;-1.696;2022-10-16T04:27:24;14.00;99.90
22968;DHT22;11650;48.106;-1.696;2022-10-16T04:29:50;14.00;99.90
22968;DHT22;11650;48.106;-1.696;2022-10-16T04:32:16;14.10;99.90
22968;DHT22;11650;48.106;-1.696;2022-10-16T04:34:41;14.00;99.90
22968;DHT22;11650;48.106;-1.696;2022-10-16T04:37:07;14.10;99.90
22968;DHT22;11650;48.106;-1.696;2022-10-16T04:39:33;14.10;99.90
22968;DHT22;11650;48.106;-1.696;2022-10-16T04:41:58;14.10;99.90
22968;DHT22;11650;48.106;-1.696;2022-10-16T04:44:24;14.10;99.90
22968;DHT22;11650;48.106;-1.696;2022-10-16T04:46:52;14.10;99.90
22968;DHT22;11650;48.106;-1.696;2022-10-16T04:49:18;14.10;99.90
22968;DHT22;11650;48.106;-1.696;2022-10-16T04:51:44;14.20;99.90
22968;DHT22;11650;48.106;-1.696;2022-10-16T04:54:09;14.20;99.90
22968;DHT22;11650;48.106;-1.696;2022-10-16T04:56:35;14.20;99.90
22968;DHT22;11650;48.106;-1.696;2022-10-16T04:59:08;14.20;99.90
22968;DHT22;11650;48.106;-1.696;2022-10-16T05:01:34;14.20;99.90
22968;DHT22;11650;48.106;-1.696;2022-10-16T05:04:00;14.20;99.90
22968;DHT22;11650;48.106;-1.696;2022-10-16T05:06:25;14.30;99.90
22968;DHT22;11650;48.106;-1.696;2022-10-16T05:08:51;14.30;99.90
22968;DHT22;11650;48.106;-1.696;2022-10-16T05:11:17;14.30;99.90
22968;DHT22;11650;48.106;-1.696;2022-10-16T05:13:42;14.30;99.90
22968;DHT22;11650;48.106;-1.696;2022-10-16T05:16:08;14.30;99.90
22968;DHT22;11650;48.106;-1.696;2022-10-16T05:18:33;14.30;99.90
22968;DHT22;11650;48.106;-1.696;2022-10-16T05:20:59;14.40;99.90
22968;DHT22;11650;48.106;-1.696;2022-10-16T05:23:25;14.40;99.90
22968;DHT22;11650;48.106;-1.696;2022-10-16T05:25:54;14.40;99.90
22968;DHT22;11650;48.106;-1.696;2022-10-16T05:28:20;14.40;99.90
22968;DHT22;11650;48.106;-1.696;2022-10-16T05:30:46;14.40;99.90
22968;DHT22;11650;48.106;-1.696;2022-10-16T05:33:12;14.40;99.90
22968;DHT22;11650;48.106;-1.696;2022-10-16T05:35:38;14.40;99.90
22968;DHT22;11650;48.106;-1.696;2022-10-16T05:38:04;14.40;99.90
22968;DHT22;11650;48.106;-1.696;2022-10-16T05:40:29;14.40;99.90
22968;DHT22;11650;48.106;-1.696;2022-10-16T05:42:55;14.50;99.90
22968;DHT22;11650;48.106;-1.696;2022-10-16T05:45:21;14.50;99.90
22968;DHT22;11650;48.106;-1.696;2022-10-16T05:47:47;14.40;99.90
22968;DHT22;11650;48.106;-1.696;2022-10-16T05:50:13;14.40;99.90
22968;DHT22;11650;48.106;-1.696;2022-10-16T05:52:38;14.50;99.90
22968;DHT22;11650;48.106;-1.696;2022-10-16T05:55:04;14.50;99.90
22968;DHT22;11650;48.106;-1.696;2022-10-16T05:57:30;14.50;99.90
22968;DHT22;11650;48.106;-1.696;2022-10-16T05:59:56;14.50;99.90
22968;DHT22;11650;48.106;-1.696;2022-10-16T06:02:21;14.50;99.90
22968;DHT22;11650;48.106;-1.696;2022-10-16T06:04:47;14.50;99.90
22968;DHT22;11650;48.106;-1.696;2022-10-16T06:07:12;14.50;99.90
22968;DHT22;11650;48.106;-1.696;2022-10-16T06:09:38;14.50;99.90
22968;DHT22;11650;48.106;-1.696;2022-10-16T06:12:04;14.50;99.90
22968;DHT22;11650;48.106;-1.696;2022-10-16T06:14:29;14.50;99.90
22968;DHT22;11650;48.106;-1.696;2022-10-16T06:16:55;14.50;99.90
22968;DHT22;11650;48.106;-1.696;2022-10-16T06:19:20;14.60;99.90
22968;DHT22;11650;48.106;-1.696;2022-10-16T06:21:46;14.60;99.90
22968;DHT22;11650;48.106;-1.696;2022-10-16T06:24:12;14.60;99.90
22968;DHT22;11650;48.106;-1.696;2022-10-16T06:26:38;14.60;99.90
22968;DHT22;11650;48.106;-1.696;2022-10-16T06:29:04;14.70;99.90
22968;DHT22;11650;48.106;-1.696;2022-10-16T06:31:29;14.70;99.90
22968;DHT22;11650;48.106;-1.696;2022-10-16T06:33:58;14.70;99.90
22968;DHT22;11650;48.106;-1.696;2022-10-16T06:36:25;14.70;99.90
22968;DHT22;11650;48.106;-1.696;2022-10-16T06:38:51;14.70;99.90
22968;DHT22;11650;48.106;-1.696;2022-10-16T06:41:19;14.70;99.90
22968;DHT22;11650;48.106;-1.696;2022-10-16T06:43:45;14.60;99.90
22968;DHT22;11650;48.106;-1.696;2022-10-16T06:46:12;14.60;99.90
22968;DHT22;11650;48.106;-1.696;2022-10-16T06:48:38;14.60;99.90
22968;DHT22;11650;48.106;-1.696;2022-10-16T06:51:07;14.70;99.90
22968;DHT22;11650;48.106;-1.696;2022-10-16T06:53:35;14.60;99.90
22968;DHT22;11650;48.106;-1.696;2022-10-16T06:58:34;14.70;99.90
22968;DHT22;11650;48.106;-1.696;2022-10-16T07:01:00;14.70;99.90
22968;DHT22;11650;48.106;-1.696;2022-10-16T07:03:25;14.70;99.90
22968;DHT22;11650;48.106;-1.696;2022-10-16T07:05:51;14.70;99.90
22968;DHT22;11650;48.106;-1.696;2022-10-16T07:08:16;14.70;99.90
22968;DHT22;11650;48.106;-1.696;2022-10-16T07:10:42;14.70;99.90
22968;DHT22;11650;48.106;-1.696;2022-10-16T07:13:08;14.80;99.90
22968;DHT22;11650;48.106;-1.696;2022-10-16T07:15:33;14.90;99.90
22968;DHT22;11650;48.106;-1.696;2022-10-16T07:17:59;14.90;99.90
22968;DHT22;11650;48.106;-1.696;2022-10-16T07:20:25;15.00;99.90
22968;DHT22;11650;48.106;-1.696;2022-10-16T07:22:51;15.10;99.90
22968;DHT22;11650;48.106;-1.696;2022-10-16T07:25:17;15.20;99.90
22968;DHT22;11650;48.106;-1.696;2022-10-16T07:27:42;15.20;99.90
22968;DHT22;11650;48.106;-1.696;2022-10-16T07:30:09;15.20;99.90
22968;DHT22;11650;48.106;-1.696;2022-10-16T07:32:34;15.30;99.90
22968;DHT22;11650;48.106;-1.696;2022-10-16T07:35:00;15.30;99.90
22968;DHT22;11650;48.106;-1.696;2022-10-16T07:37:26;15.30;99.90
22968;DHT22;11650;48.106;-1.696;2022-10-16T07:39:51;15.40;99.90
22968;DHT22;11650;48.106;-1.696;2022-10-16T07:42:17;15.50;99.90
22968;DHT22;11650;48.106;-1.696;2022-10-16T07:44:42;15.60;99.90
22968;DHT22;11650;48.106;-1.696;2022-10-16T07:47:08;15.70;99.90
22968;DHT22;11650;48.106;-1.696;2022-10-16T07:49:34;15.90;99.90
22968;DHT22;11650;48.106;-1.696;2022-10-16T07:52:00;15.90;99.90
22968;DHT22;11650;48.106;-1.696;2022-10-16T07:54:25;15.90;99.90
22968;DHT22;11650;48.106;-1.696;2022-10-16T07:56:51;15.90;99.90
22968;DHT22;11650;48.106;-1.696;2022-10-16T07:59:17;15.90;99.90
22968;DHT22;11650;48.106;-1.696;2022-10-16T08:01:42;15.90;99.90
22968;DHT22;11650;48.106;-1.696;2022-10-16T08:04:09;15.90;99.90
22968;DHT22;11650;48.106;-1.696;2022-10-16T08:06:37;16.00;99.90
22968;DHT22;11650;48.106;-1.696;2022-10-16T08:09:03;16.30;99.90
22968;DHT22;11650;48.106;-1.696;2022-10-16T08:11:29;16.60;99.90
22968;DHT22;11650;48.106;-1.696;2022-10-16T08:13:55;16.80;99.90
22968;DHT22;11650;48.106;-1.696;2022-10-16T08:16:20;16.90;99.90
22968;DHT22;11650;48.106;-1.696;2022-10-16T08:18:46;16.90;99.90
22968;DHT22;11650;48.106;-1.696;2022-10-16T08:21:15;16.80;99.90
22968;DHT22;11650;48.106;-1.696;2022-10-16T08:23:42;16.70;99.90
22968;DHT22;11650;48.106;-1.696;2022-10-16T08:26:08;16.60;99.90
22968;DHT22;11650;48.106;-1.696;2022-10-16T08:28:35;16.50;99.90
22968;DHT22;11650;48.106;-1.696;2022-10-16T08:31:12;16.40;99.90
22968;DHT22;11650;48.106;-1.696;2022-10-16T08:33:40;16.20;99.90
22968;DHT22;11650;48.106;-1.696;2022-10-16T08:36:06;16.20;99.90
22968;DHT22;11650;48.106;-1.696;2022-10-16T08:38:32;16.20;99.90
22968;DHT22;11650;48.106;-1.696;2022-10-16T08:49:12;16.50;99.90
22968;DHT22;11650;48.106;-1.696;2022-10-16T08:51:41;16.50;99.90
22968;DHT22;11650;48.106;-1.696;2022-10-16T08:54:39;16.60;99.90
22968;DHT22;11650;48.106;-1.696;2022-10-16T08:57:30;16.70;99.90
22968;DHT22;11650;48.106;-1.696;2022-10-16T09:00:00;16.80;99.90
22968;DHT22;11650;48.106;-1.696;2022-10-16T09:13:52;17.00;99.90
22968;DHT22;11650;48.106;-1.696;2022-10-16T09:19:00;16.80;99.90
22968;DHT22;11650;48.106;-1.696;2022-10-16T09:21:52;16.90;99.90
22968;DHT22;11650;48.106;-1.696;2022-10-16T09:24:21;17.00;99.90
22968;DHT22;11650;48.106;-1.696;2022-10-16T09:26:47;17.00;99.90
22968;DHT22;11650;48.106;-1.696;2022-10-16T09:29:18;17.00;99.90
22968;DHT22;11650;48.106;-1.696;2022-10-16T09:31:47;16.90;99.90
22968;DHT22;11650;48.106;-1.696;2022-10-16T09:36:48;17.20;99.90
22968;DHT22;11650;48.106;-1.696;2022-10-16T09:39:13;17.30;99.90
22968;DHT22;11650;48.106;-1.696;2022-10-16T09:41:41;17.30;99.90
22968;DHT22;11650;48.106;-1.696;2022-10-16T09:44:40;17.30;99.90
22968;DHT22;11650;48.106;-1.696;2022-10-16T09:49:38;17.30;99.90
22968;DHT22;11650;48.106;-1.696;2022-10-16T09:52:14;17.40;99.90
22968;DHT22;11650;48.106;-1.696;2022-10-16T09:54:54;17.50;99.90
22968;DHT22;11650;48.106;-1.696;2022-10-16T09:57:21;17.50;99.90
22968;DHT22;11650;48.106;-1.696;2022-10-16T09:59:57;17.40;99.90
22968;DHT22;11650;48.106;-1.696;2022-10-16T10:04:54;17.60;99.90
22968;DHT22;11650;48.106;-1.696;2022-10-16T10:07:26;17.60;99.90
22968;DHT22;11650;48.106;-1.696;2022-10-16T10:09:53;17.50;99.90
22968;DHT22;11650;48.106;-1.696;2022-10-16T10:12:28;17.50;99.90
22968;DHT22;11650;48.106;-1.696;2022-10-16T10:14:58;17.50;99.90
22968;DHT22;11650;48.106;-1.696;2022-10-16T10:17:29;17.50;99.90
22968;DHT22;11650;48.106;-1.696;2022-10-16T10:19:58;17.50;99.90
22968;DHT22;11650;48.106;-1.696;2022-10-16T10:36:32;17.00;99.90
22968;DHT22;11650;48.106;-1.696;2022-10-16T10:39:03;16.90;99.90
22968;DHT22;11650;48.106;-1.696;2022-10-16T10:44:07;16.70;99.90
22968;DHT22;11650;48.106;-1.696;2022-10-16T10:47:06;16.50;99.90
22968;DHT22;11650;48.106;-1.696;2022-10-16T10:50:07;16.40;99.90
22968;DHT22;11650;48.106;-1.696;2022-10-16T10:52:41;16.20;99.90
22968;DHT22;11650;48.106;-1.696;2022-10-16T11:06:10;15.80;99.90
22968;DHT22;11650;48.106;-1.696;2022-10-16T11:08:48;15.70;99.90
22968;DHT22;11650;48.106;-1.696;2022-10-16T11:11:20;15.60;99.90
22968;DHT22;11650;48.106;-1.696;2022-10-16T11:14:14;15.50;99.90
22968;DHT22;11650;48.106;-1.696;2022-10-16T11:16:54;15.50;99.90
22968;DHT22;11650;48.106;-1.696;2022-10-16T11:24:55;15.60;99.90
22968;DHT22;11650;48.106;-1.696;2022-10-16T11:27:47;15.50;99.90
22968;DHT22;11650;48.106;-1.696;2022-10-16T11:33:27;15.40;99.90
22968;DHT22;11650;48.106;-1.696;2022-10-16T11:41:47;15.60;99.90
22968;DHT22;11650;48.106;-1.696;2022-10-16T11:44:33;15.80;99.90
22968;DHT22;11650;48.106;-1.696;2022-10-16T11:50:28;16.00;99.90
22968;DHT22;11650;48.106;-1.696;2022-10-16T11:55:36;16.30;99.90
22968;DHT22;11650;48.106;-1.696;2022-10-16T12:00:59;16.30;99.90
22968;DHT22;11650;48.106;-1.696;2022-10-16T12:09:00;16.30;99.90
22968;DHT22;11650;48.106;-1.696;2022-10-16T12:14:02;16.20;99.90
22968;DHT22;11650;48.106;-1.696;2022-10-16T12:16:28;16.30;99.90
22968;DHT22;11650;48.106;-1.696;2022-10-16T12:19:10;16.30;99.90
22968;DHT22;11650;48.106;-1.696;2022-10-16T12:21:37;16.40;99.90
22968;DHT22;11650;48.106;-1.696;2022-10-16T12:24:03;16.50;99.90
22968;DHT22;11650;48.106;-1.696;2022-10-16T12:26:38;16.70;99.90
22968;DHT22;11650;48.106;-1.696;2022-10-16T12:32:05;16.80;99.90
22968;DHT22;11650;48.106;-1.696;2022-10-16T12:34:39;16.80;99.90
22968;DHT22;11650;48.106;-1.696;2022-10-16T12:37:21;16.80;99.90
22968;DHT22;11650;48.106;-1.696;2022-10-16T12:39:48;16.90;99.90
22968;DHT22;11650;48.106;-1.696;2022-10-16T12:44:48;17.00;99.90
22968;DHT22;11650;48.106;-1.696;2022-10-16T12:49:56;17.20;99.90
22968;DHT22;11650;48.106;-1.696;2022-10-16T12:52:40;17.10;99.90
22968;DHT22;11650;48.106;-1.696;2022-10-16T12:55:15;17.30;99.90
22968;DHT22;11650;48.106;-1.696;2022-10-16T12:58:13;17.40;99.90
22968;DHT22;11650;48.106;-1.696;2022-10-16T13:20:44;18.30;99.90
22968;DHT22;11650;48.106;-1.696;2022-10-16T13:23:31;18.40;99.90
22968;DHT22;11650;48.106;-1.696;2022-10-16T13:28:33;18.30;99.90
22968;DHT22;11650;48.106;-1.696;2022-10-16T13:31:01;18.20;99.90
22968;DHT22;11650;48.106;-1.696;2022-10-16T13:33:36;18.40;99.90
22968;DHT22;11650;48.106;-1.696;2022-10-16T13:36:03;18.20;99.90
22968;DHT22;11650;48.106;-1.696;2022-10-16T13:38:34;18.20;99.90
22968;DHT22;11650;48.106;-1.696;2022-10-16T13:41:01;18.50;99.90
22968;DHT22;11650;48.106;-1.696;2022-10-16T13:43:38;19.00;99.90
22968;DHT22;11650;48.106;-1.696;2022-10-16T13:46:13;19.90;99.90
22968;DHT22;11650;48.106;-1.696;2022-10-16T13:48:39;20.10;99.90
22968;DHT22;11650;48.106;-1.696;2022-10-16T13:51:10;19.80;99.90
22968;DHT22;11650;48.106;-1.696;2022-10-16T13:53:37;19.70;99.90
22968;DHT22;11650;48.106;-1.696;2022-10-16T13:56:05;19.80;99.90
22968;DHT22;11650;48.106;-1.696;2022-10-16T13:58:31;20.00;99.90
22968;DHT22;11650;48.106;-1.696;2022-10-16T14:00:59;20.00;99.90
22968;DHT22;11650;48.106;-1.696;2022-10-16T14:03:26;20.10;99.90
22968;DHT22;11650;48.106;-1.696;2022-10-16T14:05:54;20.60;99.90
22968;DHT22;11650;48.106;-1.696;2022-10-16T14:08:22;20.90;99.90
22968;DHT22;11650;48.106;-1.696;2022-10-16T14:10:49;21.30;99.90
22968;DHT22;11650;48.106;-1.696;2022-10-16T14:13:23;21.60;99.90
22968;DHT22;11650;48.106;-1.696;2022-10-16T14:15:52;22.30;99.90
22968;DHT22;11650;48.106;-1.696;2022-10-16T14:18:25;22.20;99.90
22968;DHT22;11650;48.106;-1.696;2022-10-16T14:20:51;22.20;99.90
22968;DHT22;11650;48.106;-1.696;2022-10-16T14:23:29;22.10;99.90
22968;DHT22;11650;48.106;-1.696;2022-10-16T14:28:39;21.30;99.90
22968;DHT22;11650;48.106;-1.696;2022-10-16T14:31:28;21.50;99.90
22968;DHT22;11650;48.106;-1.696;2022-10-16T14:33:54;21.40;99.90
22968;DHT22;11650;48.106;-1.696;2022-10-16T14:36:20;21.60;99.90
22968;DHT22;11650;48.106;-1.696;2022-10-16T14:39:05;21.40;99.90
22968;DHT22;11650;48.106;-1.696;2022-10-16T14:41:42;21.30;99.90
22968;DHT22;11650;48.106;-1.696;2022-10-16T14:44:10;21.00;99.90
22968;DHT22;11650;48.106;-1.696;2022-10-16T14:46:39;21.10;99.90
22968;DHT22;11650;48.106;-1.696;2022-10-16T14:51:38;22.60;99.90
22968;DHT22;11650;48.106;-1.696;2022-10-16T14:54:08;23.30;99.90
22968;DHT22;11650;48.106;-1.696;2022-10-16T14:59:17;24.40;99.90
22968;DHT22;11650;48.106;-1.696;2022-10-16T15:01:45;25.00;99.90
22968;DHT22;11650;48.106;-1.696;2022-10-16T15:04:12;25.60;99.90
22968;DHT22;11650;48.106;-1.696;2022-10-16T15:06:38;26.60;99.90
22968;DHT22;11650;48.106;-1.696;2022-10-16T15:09:03;27.30;99.90
22968;DHT22;11650;48.106;-1.696;2022-10-16T15:11:31;27.50;99.90
22968;DHT22;11650;48.106;-1.696;2022-10-16T15:13:57;26.80;99.90
22968;DHT22;11650;48.106;-1.696;2022-10-16T15:16:23;27.20;99.90
22968;DHT22;11650;48.106;-1.696;2022-10-16T15:18:49;26.10;99.90
22968;DHT22;11650;48.106;-1.696;2022-10-16T15:21:25;24.80;99.90
22968;DHT22;11650;48.106;-1.696;2022-10-16T15:23:52;24.10;99.90
22968;DHT22;11650;48.106;-1.696;2022-10-16T15:26:18;23.40;99.90
22968;DHT22;11650;48.106;-1.696;2022-10-16T15:28:44;22.90;99.90
22968;DHT22;11650;48.106;-1.696;2022-10-16T15:31:10;22.60;99.90
22968;DHT22;11650;48.106;-1.696;2022-10-16T15:33:35;22.80;99.90
22968;DHT22;11650;48.106;-1.696;2022-10-16T15:36:02;23.00;99.90
22968;DHT22;11650;48.106;-1.696;2022-10-16T15:38:29;23.50;99.90
22968;DHT22;11650;48.106;-1.696;2022-10-16T15:40:55;23.60;99.90
22968;DHT22;11650;48.106;-1.696;2022-10-16T15:43:21;23.10;99.90
22968;DHT22;11650;48.106;-1.696;2022-10-16T15:46:08;23.30;99.90
22968;DHT22;11650;48.106;-1.696;2022-10-16T15:48:35;24.50;99.90
22968;DHT22;11650;48.106;-1.696;2022-10-16T15:51:05;26.00;99.90
22968;DHT22;11650;48.106;-1.696;2022-10-16T15:53:31;27.40;99.90
22968;DHT22;11650;48.106;-1.696;2022-10-16T15:55:57;28.80;99.90
22968;DHT22;11650;48.106;-1.696;2022-10-16T15:58:22;29.20;99.90
22968;DHT22;11650;48.106;-1.696;2022-10-16T16:00:58;29.50;99.90
22968;DHT22;11650;48.106;-1.696;2022-10-16T16:03:26;30.10;99.90
22968;DHT22;11650;48.106;-1.696;2022-10-16T16:05:52;30.00;99.90
22968;DHT22;11650;48.106;-1.696;2022-10-16T16:08:18;29.80;99.90
22968;DHT22;11650;48.106;-1.696;2022-10-16T16:10:43;30.70;99.90
22968;DHT22;11650;48.106;-1.696;2022-10-16T16:13:09;30.60;99.90
22968;DHT22;11650;48.106;-1.696;2022-10-16T16:15:38;29.40;99.90
22968;DHT22;11650;48.106;-1.696;2022-10-16T16:18:04;28.50;99.90
22968;DHT22;11650;48.106;-1.696;2022-10-16T16:20:31;27.90;99.90
22968;DHT22;11650;48.106;-1.696;2022-10-16T16:22:56;25.90;99.90
22968;DHT22;11650;48.106;-1.696;2022-10-16T16:25:22;24.20;99.90
22968;DHT22;11650;48.106;-1.696;2022-10-16T16:27:48;23.20;99.90
22968;DHT22;11650;48.106;-1.696;2022-10-16T16:30:14;22.40;99.90
22968;DHT22;11650;48.106;-1.696;2022-10-16T16:32:39;22.00;99.90
22968;DHT22;11650;48.106;-1.696;2022-10-16T16:35:05;21.60;99.90
22968;DHT22;11650;48.106;-1.696;2022-10-16T16:37:31;21.50;99.90
22968;DHT22;11650;48.106;-1.696;2022-10-16T16:39:57;21.30;99.90
22968;DHT22;11650;48.106;-1.696;2022-10-16T16:42:26;21.10;99.90
22968;DHT22;11650;48.106;-1.696;2022-10-16T16:44:53;20.90;99.90
22968;DHT22;11650;48.106;-1.696;2022-10-16T16:47:18;20.80;99.90
22968;DHT22;11650;48.106;-1.696;2022-10-16T16:49:44;20.60;99.90
22968;DHT22;11650;48.106;-1.696;2022-10-16T16:52:12;20.50;99.90
22968;DHT22;11650;48.106;-1.696;2022-10-16T16:54:38;20.40;99.90
22968;DHT22;11650;48.106;-1.696;2022-10-16T16:57:04;20.20;99.90
22968;DHT22;11650;48.106;-1.696;2022-10-16T16:59:30;20.10;99.90
22968;DHT22;11650;48.106;-1.696;2022-10-16T17:02:01;20.00;99.90
22968;DHT22;11650;48.106;-1.696;2022-10-16T17:04:27;19.90;99.90
22968;DHT22;11650;48.106;-1.696;2022-10-16T17:06:54;19.90;99.90
22968;DHT22;11650;48.106;-1.696;2022-10-16T17:09:20;19.70;99.90
22968;DHT22;11650;48.106;-1.696;2022-10-16T17:11:46;19.70;99.90
22968;DHT22;11650;48.106;-1.696;2022-10-16T17:14:14;19.60;99.90
22968;DHT22;11650;48.106;-1.696;2022-10-16T17:16:40;19.50;99.90
22968;DHT22;11650;48.106;-1.696;2022-10-16T17:19:12;19.40;99.90
22968;DHT22;11650;48.106;-1.696;2022-10-16T17:21:39;19.30;99.90
22968;DHT22;11650;48.106;-1.696;2022-10-16T17:24:05;19.20;99.90
22968;DHT22;11650;48.106;-1.696;2022-10-16T17:26:31;19.20;99.90
22968;DHT22;11650;48.106;-1.696;2022-10-16T17:29:00;19.10;99.90
22968;DHT22;11650;48.106;-1.696;2022-10-16T17:31:31;19.10;99.90
22968;DHT22;11650;48.106;-1.696;2022-10-16T17:33:58;19.10;99.90
22968;DHT22;11650;48.106;-1.696;2022-10-16T17:36:24;19.10;99.90
22968;DHT22;11650;48.106;-1.696;2022-10-16T17:38:50;19.00;99.90
22968;DHT22;11650;48.106;-1.696;2022-10-16T17:41:21;18.90;99.90
22968;DHT22;11650;48.106;-1.696;2022-10-16T17:43:48;18.90;99.90
22968;DHT22;11650;48.106;-1.696;2022-10-16T17:46:15;18.90;99.90
22968;DHT22;11650;48.106;-1.696;2022-10-16T17:48:46;18.90;99.90
22968;DHT22;11650;48.106;-1.696;2022-10-16T17:51:15;19.00;99.90